CSL Niagara — VCGJ — position and weather

sailwx.info

Track history (hours):
 
Tides and Currents Weather Stations Pressure Air Temp Water Temp Dewpoint Dewpoint Depression Visibility Wind Speed Wind Dir Waves Ship Positions

CSL Niagara

ex J. W. McGiffin

Last reported at 2018-Jun-20 02:00 UTC. Time now 2018-Jun-20 03:55 UTC.
Position N 47°06' W 086°12'.

Length 225 m; draft 8.1 m.

Type: Cargo ship. MMSI: 316029000.

Wind from 180 at 6 knots

Date/timePositionNaut miles runAvg speedWind from/ knotsBaromVisibWave heightAir tempDewpointWater temp
2018-Jun-20 02:00N 47°06' W 086°12'19711.5 180 / 6
2018-Jun-19 08:54N 47°09' W 091°02'512.0
2018-Jun-19 08:30N 47°07' W 091°08'612.0
2018-Jun-19 08:00N 47°04' W 091°16'612.1
2018-Jun-19 07:30N 47°01' W 091°24'612.0
2018-Jun-19 07:00N 46°58' W 091°32'612.0
2018-Jun-19 06:30N 46°56' W 091°40'612.1
2018-Jun-19 06:00N 46°53' W 091°47'262337.7
2018-Jun-19 06:00N 46°30' W 091°30'2754.7 070 / 2541.010.8 -17.7
2018-Jun-19 05:30N 46°50' W 091°55'612.1
2018-Jun-19 05:00N 46°48' W 092°03'3 5.1
2018-Jun-19 04:31N 46°46' W 092°06'2 3.0
2018-Jun-19 04:00N 46°45' W 092°07'1 1.2
2018-Jun-19 03:29N 46°45' W 092°08'0 0.0
2018-Jun-19 02:59N 46°45' W 092°08'0 0.0
2018-Jun-19 02:29N 46°45' W 092°08'0 0.0
2018-Jun-19 01:59N 46°45' W 092°08'0 0.0
2018-Jun-19 01:29N 46°45' W 092°08'0 0.0
2018-Jun-19 00:59N 46°45' W 092°08'0 0.0
2018-Jun-19 00:29N 46°45' W 092°08'0 0.0
2018-Jun-18 23:59N 46°45' W 092°08'0 0.0
2018-Jun-18 23:20N 46°45' W 092°08'0 0.0
2018-Jun-18 22:50N 46°45' W 092°08'0 0.0
2018-Jun-18 22:17N 46°45' W 092°08'0 0.0
2018-Jun-18 21:53N 46°45' W 092°08'0 0.0
2018-Jun-18 21:23N 46°45' W 092°08'0 0.0
2018-Jun-18 20:53N 46°45' W 092°08'0 0.0
2018-Jun-18 20:08N 46°45' W 092°08'0 0.0
2018-Jun-18 19:38N 46°45' W 092°08'0 0.0
2018-Jun-18 19:26N 46°45' W 092°08'0 0.0
2018-Jun-18 18:56N 46°45' W 092°08'0 0.0
2018-Jun-18 18:26N 46°45' W 092°08'0 0.0
2018-Jun-18 17:56N 46°45' W 092°08'0 0.0
2018-Jun-18 17:26N 46°45' W 092°08'0 0.0
2018-Jun-18 16:56N 46°45' W 092°08'0 0.0
2018-Jun-18 16:29N 46°45' W 092°08'0 0.0
2018-Jun-18 15:59N 46°45' W 092°08'0 0.0
2018-Jun-18 15:29N 46°45' W 092°08'0 0.0
2018-Jun-18 15:00N 46°45' W 092°08'0 0.1
2018-Jun-18 14:30N 46°45' W 092°08'1 1.5
2018-Jun-18 14:00N 46°45' W 092°07'2 3.4
2018-Jun-18 13:30N 46°46' W 092°06'4 7.5
2018-Jun-18 13:00N 46°48' W 092°01'612.3
2018-Jun-18 12:30N 46°50' W 091°53'612.5
2018-Jun-18 12:00N 46°53' W 091°45'812.4
2018-Jun-18 11:22N 46°55' W 091°34'33610.1
2018-Jun-17 01:59N 45°42' W 083°39'712.6
2018-Jun-17 01:25N 45°36' W 083°34'512.7
2018-Jun-17 00:59N 45°32' W 083°29'612.7
2018-Jun-17 00:30N 45°27' W 083°24'73142.5
2018-Jun-17 00:00N 45°12' W 085°06'7611901.5 140 / 8
2018-Jun-16 23:59N 45°21' W 083°19'218 7.3
2018-Jun-15 18:00N 42°00' W 081°24'364 7.1 270 / 2507.127.0 -17.7
2018-Jun-13 15:00N 45°12' W 074°18'11 9.1
2018-Jun-13 13:45N 45°14' W 074°02'3 8.7
2018-Jun-13 13:21N 45°16' W 073°58'3 8.0
2018-Jun-13 13:00N 45°18' W 073°56'0 0.7
2018-Jun-13 12:30N 45°18' W 073°56'1 1.4
2018-Jun-13 12:00N 45°19' W 073°55'0 0.1
2018-Jun-13 11:30N 45°19' W 073°55'0 0.0
2018-Jun-13 10:59N 45°19' W 073°55'0 0.0
2018-Jun-13 10:26N 45°19' W 073°55'0 0.7
2018-Jun-13 10:00N 45°19' W 073°55'2 3.7
2018-Jun-13 09:30N 45°21' W 073°53'610.6
2018-Jun-13 08:59N 45°24' W 073°47'4 8.1
2018-Jun-13 08:30N 45°25' W 073°42'3 5.5
2018-Jun-13 08:00N 45°24' W 073°38'3 5.2
2018-Jun-13 07:30N 45°24' W 073°34'0 0.7
2018-Jun-13 07:00N 45°24' W 073°34'2 3.2
2018-Jun-13 06:30N 45°25' W 073°31'3 5.4
2018-Jun-13 06:00N 45°27' W 073°30'2 4.6
2018-Jun-13 05:30N 45°29' W 073°31'0 0.7
2018-Jun-13 05:00N 45°30' W 073°31'6 4.9
2018-Jun-13 03:44N 45°36' W 073°30'2 8.8
2018-Jun-13 03:30N 45°38' W 073°29'4 9.0
2018-Jun-13 03:00N 45°42' W 073°27'5 9.3
2018-Jun-13 02:30N 45°46' W 073°23'5 9.4
2018-Jun-13 02:00N 45°49' W 073°18'5 9.6
2018-Jun-13 01:30N 45°53' W 073°14'5 9.1
2018-Jun-13 01:00N 45°58' W 073°12'5317.0
2018-Jun-13 01:00N 46°00' W 073°06'4 7.2 210 / 8
2018-Jun-13 00:30N 46°02' W 073°10'5 9.2
2018-Jun-13 00:00N 46°04' W 073°04'90 6.9
2018-Jun-12 10:54N 46°50' W 071°12'0 0.0
2018-Jun-12 10:09N 46°50' W 071°12'0 0.0
2018-Jun-12 09:48N 46°50' W 071°12'0 0.0
2018-Jun-12 09:27N 46°50' W 071°12'0 0.0
2018-Jun-12 06:55N 46°50' W 071°12'0 0.0
2018-Jun-12 06:30N 46°50' W 071°12'0 0.0
2018-Jun-12 05:52N 46°50' W 071°12'0 0.0
2018-Jun-12 05:29N 46°50' W 071°12'0 0.0
2018-Jun-12 05:00N 46°50' W 071°12'0 0.0
2018-Jun-12 04:30N 46°50' W 071°12'0 0.0
2018-Jun-12 04:00N 46°50' W 071°12'0 0.0
2018-Jun-12 03:30N 46°50' W 071°12'0 0.0
2018-Jun-12 02:55N 46°50' W 071°12'0 0.3
2018-Jun-12 02:20N 46°50' W 071°11'1 1.8
2018-Jun-12 02:00N 46°49' W 071°11'8611.9
2018-Jun-11 18:45N 46°06' W 072°60'313.1
2018-Jun-11 18:30N 46°04' W 073°04'611.4
2018-Jun-11 18:00N 46°01' W 073°10'713.3
2018-Jun-11 17:30N 45°54' W 073°13'713.2
2018-Jun-11 17:00N 45°49' W 073°19'713.4
2018-Jun-11 16:30N 45°44' W 073°25'713.0
2018-Jun-11 15:59N 45°38' W 073°29'8 9.6
2018-Jun-11 15:11N 45°30' W 073°31'0 2.6
2018-Jun-11 15:00N 45°30' W 073°31'0 0.3
2018-Jun-11 14:29N 45°30' W 073°31'0 1.0
2018-Jun-11 14:00N 45°29' W 073°31'1 1.6
2018-Jun-11 13:30N 45°28' W 073°30'3 5.2
2018-Jun-11 13:00N 45°26' W 073°30'3 5.1
2018-Jun-11 12:30N 45°24' W 073°33'1 1.2
2018-Jun-11 12:00N 45°24' W 073°34'0 0.6
2018-Jun-11 11:30N 45°24' W 073°34'2 3.2
2018-Jun-11 11:00N 45°24' W 073°37'3 5.5
2018-Jun-11 10:30N 45°25' W 073°40'3 6.4
2018-Jun-11 10:00N 45°24' W 073°45'611.2
2018-Jun-11 09:30N 45°21' W 073°52'3 6.6
2018-Jun-11 09:00N 45°19' W 073°55'0 0.5
2018-Jun-11 08:30N 45°19' W 073°55'1 1.2
2018-Jun-11 08:00N 45°18' W 073°56'0 0.1
2018-Jun-11 07:30N 45°18' W 073°56'1 1.5
2018-Jun-11 07:00N 45°17' W 073°56'4 7.2
2018-Jun-11 06:29N 45°14' W 073°59'5 8.6
2018-Jun-11 05:53N 45°13' W 074°07'410.2
2018-Jun-11 05:26N 45°14' W 074°13'511.3
2018-Jun-11 05:00N 45°11' W 074°19'711.5
2018-Jun-11 04:24N 45°07' W 074°27'56 5.4
2018-Jun-10 18:00N 44°24' W 075°18'13411.2 060 / 9507.127.0 -17.7
2018-Jun-10 06:00N 43°18' W 078°00'   070 / 9507.127.0 -17.7
Track history (hours):
 
Tides and Currents Weather Stations Pressure Air Temp Water Temp Dewpoint Dewpoint Depression Visibility Wind Speed Wind Dir Waves Ship Positions

CSL Niagara

ex J. W. McGiffin

Last reported at 2018-Jun-20 02:00 UTC. Time now 2018-Jun-20 03:55 UTC.
Position N 47°06' W 086°12'.

Length 225 m; draft 8.1 m.

Type: Cargo ship. MMSI: 316029000.

Wind from 180 at 6 knots

Date/timePositionNaut miles runAvg speedWind from/ knotsBaromVisibWave heightAir tempDewpointWater temp
2018-Jun-20 02:00N 47°06' W 086°12'19711.5 180 / 6
2018-Jun-19 08:54N 47°09' W 091°02'512.0
2018-Jun-19 08:30N 47°07' W 091°08'612.0
2018-Jun-19 08:00N 47°04' W 091°16'612.1
2018-Jun-19 07:30N 47°01' W 091°24'612.0
2018-Jun-19 07:00N 46°58' W 091°32'612.0
2018-Jun-19 06:30N 46°56' W 091°40'612.1
2018-Jun-19 06:00N 46°53' W 091°47'262337.7
2018-Jun-19 06:00N 46°30' W 091°30'2754.7 070 / 2541.010.8 -17.7
2018-Jun-19 05:30N 46°50' W 091°55'612.1
2018-Jun-19 05:00N 46°48' W 092°03'3 5.1
2018-Jun-19 04:31N 46°46' W 092°06'2 3.0
2018-Jun-19 04:00N 46°45' W 092°07'1 1.2
2018-Jun-19 03:29N 46°45' W 092°08'0 0.0
2018-Jun-19 02:59N 46°45' W 092°08'0 0.0
2018-Jun-19 02:29N 46°45' W 092°08'0 0.0
2018-Jun-19 01:59N 46°45' W 092°08'0 0.0
2018-Jun-19 01:29N 46°45' W 092°08'0 0.0
2018-Jun-19 00:59N 46°45' W 092°08'0 0.0
2018-Jun-19 00:29N 46°45' W 092°08'0 0.0
2018-Jun-18 23:59N 46°45' W 092°08'0 0.0
2018-Jun-18 23:20N 46°45' W 092°08'0 0.0
2018-Jun-18 22:50N 46°45' W 092°08'0 0.0
2018-Jun-18 22:17N 46°45' W 092°08'0 0.0
2018-Jun-18 21:53N 46°45' W 092°08'0 0.0
2018-Jun-18 21:23N 46°45' W 092°08'0 0.0
2018-Jun-18 20:53N 46°45' W 092°08'0 0.0
2018-Jun-18 20:08N 46°45' W 092°08'0 0.0
2018-Jun-18 19:38N 46°45' W 092°08'0 0.0
2018-Jun-18 19:26N 46°45' W 092°08'0 0.0
2018-Jun-18 18:56N 46°45' W 092°08'0 0.0
2018-Jun-18 18:26N 46°45' W 092°08'0 0.0
2018-Jun-18 17:56N 46°45' W 092°08'0 0.0
2018-Jun-18 17:26N 46°45' W 092°08'0 0.0
2018-Jun-18 16:56N 46°45' W 092°08'0 0.0
2018-Jun-18 16:29N 46°45' W 092°08'0 0.0
2018-Jun-18 15:59N 46°45' W 092°08'0 0.0
2018-Jun-18 15:29N 46°45' W 092°08'0 0.0
2018-Jun-18 15:00N 46°45' W 092°08'0 0.1
2018-Jun-18 14:30N 46°45' W 092°08'1 1.5
2018-Jun-18 14:00N 46°45' W 092°07'2 3.4
2018-Jun-18 13:30N 46°46' W 092°06'4 7.5
2018-Jun-18 13:00N 46°48' W 092°01'612.3
2018-Jun-18 12:30N 46°50' W 091°53'612.5
2018-Jun-18 12:00N 46°53' W 091°45'812.4
2018-Jun-18 11:22N 46°55' W 091°34'33610.1
2018-Jun-17 01:59N 45°42' W 083°39'712.6
2018-Jun-17 01:25N 45°36' W 083°34'512.7
2018-Jun-17 00:59N 45°32' W 083°29'612.7
2018-Jun-17 00:30N 45°27' W 083°24'73142.5
2018-Jun-17 00:00N 45°12' W 085°06'7611901.5 140 / 8
2018-Jun-16 23:59N 45°21' W 083°19'218 7.3
2018-Jun-15 18:00N 42°00' W 081°24'364 7.1 270 / 2507.127.0 -17.7
2018-Jun-13 15:00N 45°12' W 074°18'11 9.1
2018-Jun-13 13:45N 45°14' W 074°02'3 8.7
2018-Jun-13 13:21N 45°16' W 073°58'3 8.0
2018-Jun-13 13:00N 45°18' W 073°56'0 0.7
2018-Jun-13 12:30N 45°18' W 073°56'1 1.4
2018-Jun-13 12:00N 45°19' W 073°55'0 0.1
2018-Jun-13 11:30N 45°19' W 073°55'0 0.0
2018-Jun-13 10:59N 45°19' W 073°55'0 0.0
2018-Jun-13 10:26N 45°19' W 073°55'0 0.7
2018-Jun-13 10:00N 45°19' W 073°55'2 3.7
2018-Jun-13 09:30N 45°21' W 073°53'610.6
2018-Jun-13 08:59N 45°24' W 073°47'4 8.1
2018-Jun-13 08:30N 45°25' W 073°42'3 5.5
2018-Jun-13 08:00N 45°24' W 073°38'3 5.2
2018-Jun-13 07:30N 45°24' W 073°34'0 0.7
2018-Jun-13 07:00N 45°24' W 073°34'2 3.2
2018-Jun-13 06:30N 45°25' W 073°31'3 5.4
2018-Jun-13 06:00N 45°27' W 073°30'2 4.6
2018-Jun-13 05:30N 45°29' W 073°31'0 0.7
2018-Jun-13 05:00N 45°30' W 073°31'6 4.9
2018-Jun-13 03:44N 45°36' W 073°30'2 8.8
2018-Jun-13 03:30N 45°38' W 073°29'4 9.0
2018-Jun-13 03:00N 45°42' W 073°27'5 9.3
2018-Jun-13 02:30N 45°46' W 073°23'5 9.4
2018-Jun-13 02:00N 45°49' W 073°18'5 9.6
2018-Jun-13 01:30N 45°53' W 073°14'5 9.1
2018-Jun-13 01:00N 45°58' W 073°12'5317.0
2018-Jun-13 01:00N 46°00' W 073°06'4 7.2 210 / 8
2018-Jun-13 00:30N 46°02' W 073°10'5 9.2
2018-Jun-13 00:00N 46°04' W 073°04'90 6.9
2018-Jun-12 10:54N 46°50' W 071°12'0 0.0
2018-Jun-12 10:09N 46°50' W 071°12'0 0.0
2018-Jun-12 09:48N 46°50' W 071°12'0 0.0
2018-Jun-12 09:27N 46°50' W 071°12'0 0.0
2018-Jun-12 06:55N 46°50' W 071°12'0 0.0
2018-Jun-12 06:30N 46°50' W 071°12'0 0.0
2018-Jun-12 05:52N 46°50' W 071°12'0 0.0
2018-Jun-12 05:29N 46°50' W 071°12'0 0.0
2018-Jun-12 05:00N 46°50' W 071°12'0 0.0
2018-Jun-12 04:30N 46°50' W 071°12'0 0.0
2018-Jun-12 04:00N 46°50' W 071°12'0 0.0
2018-Jun-12 03:30N 46°50' W 071°12'0 0.0
2018-Jun-12 02:55N 46°50' W 071°12'0 0.3
2018-Jun-12 02:20N 46°50' W 071°11'1 1.8
2018-Jun-12 02:00N 46°49' W 071°11'8611.9
2018-Jun-11 18:45N 46°06' W 072°60'313.1
2018-Jun-11 18:30N 46°04' W 073°04'611.4
2018-Jun-11 18:00N 46°01' W 073°10'713.3
2018-Jun-11 17:30N 45°54' W 073°13'713.2
2018-Jun-11 17:00N 45°49' W 073°19'713.4
2018-Jun-11 16:30N 45°44' W 073°25'713.0
2018-Jun-11 15:59N 45°38' W 073°29'8 9.6
2018-Jun-11 15:11N 45°30' W 073°31'0 2.6
2018-Jun-11 15:00N 45°30' W 073°31'0 0.3
2018-Jun-11 14:29N 45°30' W 073°31'0 1.0
2018-Jun-11 14:00N 45°29' W 073°31'1 1.6
2018-Jun-11 13:30N 45°28' W 073°30'3 5.2
2018-Jun-11 13:00N 45°26' W 073°30'3 5.1
2018-Jun-11 12:30N 45°24' W 073°33'1 1.2
2018-Jun-11 12:00N 45°24' W 073°34'0 0.6
2018-Jun-11 11:30N 45°24' W 073°34'2 3.2
2018-Jun-11 11:00N 45°24' W 073°37'3 5.5
2018-Jun-11 10:30N 45°25' W 073°40'3 6.4
2018-Jun-11 10:00N 45°24' W 073°45'611.2
2018-Jun-11 09:30N 45°21' W 073°52'3 6.6
2018-Jun-11 09:00N 45°19' W 073°55'0 0.5
2018-Jun-11 08:30N 45°19' W 073°55'1 1.2
2018-Jun-11 08:00N 45°18' W 073°56'0 0.1
2018-Jun-11 07:30N 45°18' W 073°56'1 1.5
2018-Jun-11 07:00N 45°17' W 073°56'4 7.2
2018-Jun-11 06:29N 45°14' W 073°59'5 8.6
2018-Jun-11 05:53N 45°13' W 074°07'410.2
2018-Jun-11 05:26N 45°14' W 074°13'511.3
2018-Jun-11 05:00N 45°11' W 074°19'711.5
2018-Jun-11 04:24N 45°07' W 074°27'56 5.4
2018-Jun-10 18:00N 44°24' W 075°18'13411.2 060 / 9507.127.0 -17.7
2018-Jun-10 06:00N 43°18' W 078°00'   070 / 9507.127.0 -17.7

Dump ship's entire track history